createdAt,value
2019-01-25T00:00:42.919Z,90.60
2019-01-25T00:03:13.122Z,90.80
2019-01-25T00:05:42.234Z,90.60
2019-01-25T00:08:11.354Z,90.40
2019-01-25T00:10:40.471Z,90.30
2019-01-25T00:13:09.605Z,90.30
2019-01-25T00:15:38.714Z,90.50
2019-01-25T00:18:07.839Z,90.30
2019-01-25T00:20:36.947Z,90.30
2019-01-25T00:23:06.067Z,90.30
2019-01-25T00:25:35.200Z,90.30
2019-01-25T00:28:04.319Z,90.40
2019-01-25T00:30:33.426Z,90.40
2019-01-25T00:33:03.612Z,90.40
2019-01-25T00:35:32.721Z,90.30
2019-01-25T00:38:01.845Z,90.50
2019-01-25T00:40:31.880Z,90.50
2019-01-25T00:43:03.692Z,90.60
2019-01-25T00:45:32.807Z,90.80
2019-01-25T00:48:01.931Z,90.80
2019-01-25T00:50:31.045Z,90.60
2019-01-25T00:53:00.164Z,90.60
2019-01-25T00:55:29.274Z,90.60
2019-01-25T00:57:58.392Z,90.50
2019-01-25T01:00:27.584Z,90.60
2019-01-25T01:02:56.712Z,90.70
2019-01-25T01:05:25.806Z,90.80
2019-01-25T01:07:54.948Z,90.90
2019-01-25T01:10:24.051Z,90.90
2019-01-25T01:12:53.185Z,90.70
2019-01-25T01:15:22.335Z,91.00
2019-01-25T01:17:51.450Z,90.90
2019-01-25T01:20:21.103Z,90.80
2019-01-25T01:22:50.301Z,90.60
2019-01-25T01:25:19.410Z,90.80
2019-01-25T01:27:48.543Z,90.80
2019-01-25T01:30:19.814Z,91.00
2019-01-25T01:32:49.011Z,90.60
2019-01-25T01:35:19.098Z,90.60
2019-01-25T01:37:48.293Z,90.60
2019-01-25T01:40:22.206Z,90.60
2019-01-25T01:42:50.178Z,90.60
2019-01-25T01:45:19.291Z,90.80
2019-01-25T01:47:48.402Z,90.60
2019-01-25T01:50:18.563Z,90.60
2019-01-25T01:52:48.515Z,90.50
2019-01-25T01:55:18.611Z,90.50
2019-01-25T01:57:47.716Z,90.60
2019-01-25T02:00:22.510Z,90.60
2019-01-25T02:02:51.697Z,90.80
2019-01-25T02:05:20.822Z,90.60
2019-01-25T02:07:49.934Z,90.40
2019-01-25T02:10:29.297Z,90.30
2019-01-25T02:12:54.943Z,90.50
2019-01-25T02:15:24.064Z,90.60
2019-01-25T02:17:53.178Z,90.70
2019-01-25T02:20:24.437Z,90.70
2019-01-25T02:22:53.607Z,90.80
2019-01-25T02:25:22.725Z,90.60
2019-01-25T02:27:52.901Z,90.60
2019-01-25T02:30:24.060Z,90.80
2019-01-25T02:32:53.266Z,90.30
2019-01-25T02:35:22.365Z,90.20
2019-01-25T02:37:52.454Z,90.30
2019-01-25T02:40:23.218Z,90.30
2019-01-25T02:42:52.403Z,90.10
2019-01-25T02:45:21.525Z,90.10
2019-01-25T02:47:51.606Z,90.20
2019-01-25T02:50:20.718Z,90.20
2019-01-25T02:52:49.833Z,90.20
2019-01-25T02:55:18.957Z,90.30
2019-01-25T02:57:48.090Z,90.30
2019-01-25T03:00:19.692Z,90.40
2019-01-25T03:02:48.871Z,90.30
2019-01-25T03:05:19.426Z,90.50
2019-01-25T03:07:48.604Z,90.40
2019-01-25T03:10:19.159Z,90.30
2019-01-25T03:12:48.262Z,90.20
2019-01-25T03:15:19.333Z,89.60
2019-01-25T03:17:48.438Z,89.40
2019-01-25T03:20:17.722Z,89.50
2019-01-25T03:22:46.833Z,89.50
2019-01-25T03:25:21.388Z,89.90
2019-01-25T03:27:50.556Z,89.10
2019-01-25T03:30:22.062Z,89.30
2019-01-25T03:32:51.168Z,89.90
2019-01-25T03:35:22.037Z,89.80
2019-01-25T03:37:52.160Z,89.70
2019-01-25T03:40:23.200Z,89.70
2019-01-25T03:42:52.306Z,88.90
2019-01-25T03:45:21.424Z,89.30
2019-01-25T03:47:50.530Z,89.20
2019-01-25T03:50:24.355Z,89.70
2019-01-25T03:52:53.475Z,88.80
2019-01-25T03:55:22.593Z,89.50
2019-01-25T03:57:51.717Z,89.00
2019-01-25T04:00:26.444Z,88.80
2019-01-25T04:02:55.544Z,89.20
2019-01-25T04:05:24.656Z,89.20
2019-01-25T04:07:53.771Z,89.60
2019-01-25T04:10:24.927Z,89.10
2019-01-25T04:12:54.037Z,88.70
2019-01-25T04:15:25.748Z,89.10
2019-01-25T04:17:54.866Z,88.40
2019-01-25T04:20:24.143Z,88.60
2019-01-25T04:22:53.248Z,88.10
2019-01-25T04:25:22.916Z,88.40
2019-01-25T04:27:52.364Z,88.30
2019-01-25T04:30:23.427Z,88.20
2019-01-25T04:32:52.531Z,87.60
2019-01-25T04:35:21.655Z,88.30
2019-01-25T04:37:50.836Z,87.60
2019-01-25T04:40:20.153Z,87.30
2019-01-25T04:42:49.262Z,87.90
2019-01-25T04:45:22.461Z,88.40
2019-01-25T04:47:51.580Z,88.20
2019-01-25T04:50:22.357Z,88.70
2019-01-25T04:52:51.477Z,89.00
2019-01-25T04:55:23.148Z,89.00
2019-01-25T04:57:52.297Z,88.30
2019-01-25T05:00:23.067Z,88.60
2019-01-25T05:03:00.010Z,87.70
2019-01-25T05:05:29.286Z,87.60
2019-01-25T05:08:10.257Z,87.00
2019-01-25T05:10:39.399Z,86.30
2019-01-25T05:13:08.568Z,86.40
2019-01-25T05:15:37.711Z,86.90
2019-01-25T05:18:06.882Z,86.90
2019-01-25T05:20:35.999Z,87.70
2019-01-25T05:23:06.554Z,87.20
2019-01-25T05:25:36.668Z,86.80
2019-01-25T05:28:13.398Z,87.60
2019-01-25T05:30:54.145Z,87.70
2019-01-25T05:33:23.272Z,87.60
2019-01-25T05:35:52.387Z,87.80
2019-01-25T05:41:02.731Z,87.70
2019-01-25T05:43:37.704Z,88.00
2019-01-25T05:46:06.823Z,87.50
2019-01-25T05:48:35.930Z,87.10
2019-01-25T05:51:05.437Z,87.10
2019-01-25T05:53:34.535Z,87.20
2019-01-25T05:56:03.958Z,87.70
2019-01-25T05:58:33.074Z,88.30
2019-01-25T06:01:02.186Z,88.60
2019-01-25T06:03:31.301Z,86.60
2019-01-25T06:06:00.400Z,86.80
2019-01-25T06:08:30.298Z,86.50
2019-01-25T06:11:02.023Z,87.00
2019-01-25T06:13:32.114Z,86.60
2019-01-25T06:16:01.217Z,88.10
2019-01-25T06:18:30.332Z,87.50
2019-01-25T06:20:59.440Z,86.90
2019-01-25T06:23:28.559Z,86.70
2019-01-25T06:25:58.909Z,86.60
2019-01-25T06:28:28.032Z,87.40
2019-01-25T06:30:57.141Z,87.40
2019-01-25T06:33:26.256Z,87.10
2019-01-25T06:35:55.373Z,87.00
2019-01-25T06:38:24.486Z,86.50
2019-01-25T06:40:53.594Z,86.40
2019-01-25T06:43:22.722Z,86.30
2019-01-25T06:45:51.826Z,85.70
2019-01-25T06:48:20.951Z,86.20
2019-01-25T06:50:50.059Z,85.50
2019-01-25T06:53:19.192Z,85.60
2019-01-25T06:55:48.296Z,85.60
2019-01-25T06:58:19.055Z,85.90
2019-01-25T07:00:52.912Z,85.80
2019-01-25T07:03:22.041Z,85.70
2019-01-25T07:05:51.213Z,85.80
2019-01-25T07:08:20.330Z,86.10
2019-01-25T07:10:49.446Z,85.80
2019-01-25T07:13:18.577Z,85.60
2019-01-25T07:15:47.670Z,85.80
2019-01-25T07:18:16.788Z,85.70
2019-01-25T07:20:45.906Z,85.90
2019-01-25T07:23:15.038Z,85.90
2019-01-25T07:25:44.151Z,85.90
2019-01-25T07:28:13.280Z,85.80
2019-01-25T07:30:42.395Z,86.20
2019-01-25T07:33:11.529Z,85.80
2019-01-25T07:35:41.639Z,85.70
2019-01-25T07:38:10.871Z,86.20
2019-01-25T07:40:40.000Z,85.50
2019-01-25T07:43:09.152Z,85.60
2019-01-25T07:45:38.319Z,85.70
2019-01-25T07:48:07.452Z,86.10
2019-01-25T07:50:36.613Z,86.10
2019-01-25T07:53:05.738Z,85.00
2019-01-25T07:55:34.864Z,84.70
2019-01-25T07:58:03.964Z,84.60
2019-01-25T08:00:33.084Z,84.70
2019-01-25T08:03:02.298Z,84.60
2019-01-25T08:05:31.563Z,83.70
2019-01-25T08:08:00.716Z,83.80
2019-01-25T08:10:29.814Z,83.70
2019-01-25T08:12:58.952Z,83.80
2019-01-25T08:15:28.134Z,83.70
2019-01-25T08:17:57.255Z,83.10
2019-01-25T08:20:26.459Z,82.00
2019-01-25T08:22:55.636Z,81.40
2019-01-25T08:25:24.754Z,81.40
2019-01-25T08:27:53.906Z,81.60
2019-01-25T08:30:25.292Z,81.70
2019-01-25T08:32:54.409Z,82.10
2019-01-25T08:35:23.600Z,82.20
2019-01-25T08:37:52.697Z,82.70
2019-01-25T08:40:21.831Z,82.90
2019-01-25T08:42:51.005Z,82.60
2019-01-25T08:45:20.163Z,83.20
2019-01-25T08:47:49.311Z,83.00
2019-01-25T08:50:24.193Z,83.30
2019-01-25T08:52:53.641Z,83.50
2019-01-25T08:55:22.880Z,83.40
2019-01-25T08:57:52.258Z,83.70
2019-01-25T09:00:23.268Z,83.50
2019-01-25T09:02:52.454Z,83.00
2019-01-25T09:05:21.637Z,82.60
2019-01-25T09:07:50.748Z,82.80
2019-01-25T09:10:21.507Z,83.00
2019-01-25T09:12:50.626Z,81.90
2019-01-25T09:15:22.804Z,82.30
2019-01-25T09:17:51.985Z,82.90
2019-01-25T09:20:22.339Z,82.90
2019-01-25T09:22:51.472Z,80.80
2019-01-25T09:25:20.582Z,80.50
2019-01-25T09:27:49.686Z,80.50
2019-01-25T09:30:26.803Z,79.80
2019-01-25T09:32:56.013Z,80.30
2019-01-25T09:35:25.279Z,80.20
2019-01-25T09:37:54.854Z,80.20
2019-01-25T09:40:24.987Z,78.70
2019-01-25T09:42:54.099Z,79.40
2019-01-25T09:45:23.388Z,79.60
2019-01-25T09:47:52.499Z,79.50
2019-01-25T09:50:22.689Z,79.80
2019-01-25T09:52:51.790Z,79.90
2019-01-25T09:55:25.883Z,79.80
2019-01-25T09:57:57.992Z,79.70
2019-01-25T10:00:32.957Z,79.80
2019-01-25T10:03:02.083Z,79.70
2019-01-25T10:05:31.199Z,80.10
2019-01-25T10:08:00.309Z,78.80
2019-01-25T10:10:29.422Z,79.20
2019-01-25T10:12:58.528Z,78.70
2019-01-25T10:15:31.056Z,78.40
2019-01-25T10:18:00.170Z,78.40
2019-01-25T10:20:29.296Z,77.50
2019-01-25T10:22:58.416Z,77.40
2019-01-25T10:25:27.514Z,77.90
2019-01-25T10:27:56.630Z,77.20
2019-01-25T10:30:27.088Z,77.40
2019-01-25T10:32:56.196Z,77.00
2019-01-25T10:35:25.304Z,76.50
2019-01-25T10:37:54.428Z,75.20
2019-01-25T10:40:23.803Z,74.20
2019-01-25T10:42:53.781Z,73.90
2019-01-25T10:45:25.970Z,74.00
2019-01-25T10:47:55.104Z,73.70
2019-01-25T10:50:24.234Z,72.80
2019-01-25T10:52:53.362Z,72.20
2019-01-25T10:55:22.458Z,72.20
2019-01-25T10:57:51.590Z,71.00
2019-01-25T11:00:21.722Z,71.30
2019-01-25T11:02:57.720Z,71.80
2019-01-25T11:05:24.220Z,73.30
2019-01-25T11:07:53.330Z,72.80
2019-01-25T11:10:22.439Z,72.30
2019-01-25T11:12:51.568Z,72.10
2019-01-25T11:15:22.514Z,73.20
2019-01-25T11:17:51.635Z,73.30
2019-01-25T11:20:25.742Z,73.90
2019-01-25T11:22:54.879Z,73.50
2019-01-25T11:25:32.967Z,73.50
2019-01-25T11:28:02.084Z,73.20
2019-01-25T11:30:31.179Z,74.00
2019-01-25T11:33:01.263Z,73.90
2019-01-25T11:35:30.376Z,73.70
2019-01-25T11:37:59.503Z,73.70
2019-01-25T11:40:30.947Z,73.70
2019-01-25T11:43:00.068Z,73.30
2019-01-25T11:45:29.177Z,73.40
2019-01-25T11:47:58.756Z,73.70
2019-01-25T11:50:28.008Z,73.40
2019-01-25T11:52:57.120Z,72.50
2019-01-25T11:55:26.228Z,72.70
2019-01-25T11:57:55.343Z,73.20
2019-01-25T12:00:29.403Z,75.10
2019-01-25T12:02:58.514Z,75.20
2019-01-25T12:05:27.629Z,74.30
2019-01-25T12:07:56.812Z,74.60
2019-01-25T12:10:31.406Z,75.00
2019-01-25T12:13:00.532Z,75.60
2019-01-25T12:15:29.633Z,77.00
2019-01-25T12:17:58.773Z,78.20
2019-01-25T12:20:31.711Z,78.50
2019-01-25T12:23:00.834Z,78.70
2019-01-25T12:25:29.942Z,78.50
2019-01-25T12:27:59.165Z,79.20
2019-01-25T12:30:37.749Z,79.90
2019-01-25T12:33:05.323Z,79.80
2019-01-25T12:35:39.017Z,80.50
2019-01-25T12:38:08.151Z,80.70
2019-01-25T12:40:41.838Z,81.30
2019-01-25T12:43:08.132Z,81.70
2019-01-25T12:45:37.240Z,82.50
2019-01-25T12:48:06.373Z,83.20
2019-01-25T12:50:48.881Z,82.30
2019-01-25T12:53:16.178Z,82.20
2019-01-25T12:55:45.360Z,82.50
2019-01-25T12:58:14.514Z,82.50
2019-01-25T13:00:43.656Z,82.80
2019-01-25T13:03:12.784Z,82.80
2019-01-25T13:05:43.262Z,83.00
2019-01-25T13:08:12.599Z,83.00
2019-01-25T13:10:41.717Z,83.30
2019-01-25T13:13:10.823Z,83.10
2019-01-25T13:15:39.939Z,83.30
2019-01-25T13:18:10.036Z,83.10
2019-01-25T13:20:39.705Z,82.80
2019-01-25T13:23:08.956Z,83.80
2019-01-25T13:25:38.078Z,84.30
2019-01-25T13:28:07.187Z,84.60
2019-01-25T13:30:37.387Z,85.20
2019-01-25T13:33:06.586Z,85.00
2019-01-25T13:35:35.770Z,85.20
2019-01-25T13:38:04.969Z,85.50
2019-01-25T13:40:34.079Z,86.00
2019-01-25T13:43:03.183Z,86.40
2019-01-25T13:45:32.299Z,86.80
2019-01-25T13:48:01.565Z,87.10
2019-01-25T13:50:30.750Z,87.20
2019-01-25T13:52:59.873Z,87.70
2019-01-25T13:55:29.031Z,87.30
2019-01-25T13:58:17.586Z,87.80
2019-01-25T14:00:46.699Z,87.80
2019-01-25T14:03:15.816Z,88.20
2019-01-25T14:05:44.924Z,89.10
2019-01-25T14:08:14.031Z,90.10
2019-01-25T14:10:43.168Z,90.50
2019-01-25T14:13:12.273Z,90.80
2019-01-25T14:15:41.395Z,91.00
2019-01-25T14:18:10.500Z,91.00
2019-01-25T14:20:39.619Z,91.10
2019-01-25T14:23:08.722Z,91.20
2019-01-25T14:25:39.052Z,91.30
2019-01-25T14:28:08.182Z,91.40
2019-01-25T14:30:39.242Z,91.70
2019-01-25T14:33:08.477Z,91.80
2019-01-25T14:35:37.658Z,92.00
2019-01-25T14:38:06.817Z,92.30
2019-01-25T14:40:35.977Z,92.40
2019-01-25T14:43:05.121Z,92.50
2019-01-25T14:45:34.243Z,92.50
2019-01-25T14:48:04.451Z,92.40
2019-01-25T14:50:33.562Z,92.50
2019-01-25T14:53:02.666Z,92.50
2019-01-25T14:55:31.783Z,92.70
2019-01-25T14:58:01.120Z,93.00
2019-01-25T15:00:30.239Z,93.10
2019-01-25T15:02:59.339Z,93.20
2019-01-25T15:05:28.450Z,93.30
2019-01-25T15:07:57.578Z,93.50
2019-01-25T15:10:26.695Z,93.60
2019-01-25T15:12:56.663Z,93.80
2019-01-25T15:15:25.784Z,94.10
2019-01-25T15:17:54.915Z,94.30
2019-01-25T15:20:26.063Z,94.40
2019-01-25T15:22:55.183Z,94.40
2019-01-25T15:25:24.302Z,94.30
2019-01-25T15:27:53.411Z,94.30
2019-01-25T15:30:27.805Z,94.30
2019-01-25T15:32:56.926Z,94.40
2019-01-25T15:35:26.035Z,94.40
2019-01-25T15:37:55.155Z,94.50
2019-01-25T15:40:25.240Z,94.50
2019-01-25T15:42:54.376Z,94.60
2019-01-25T15:45:24.420Z,94.60
2019-01-25T15:47:54.458Z,94.60
2019-01-25T15:50:26.275Z,94.70
2019-01-25T15:52:57.537Z,94.80
2019-01-25T15:55:27.082Z,94.80
2019-01-25T15:57:56.203Z,95.00
2019-01-25T16:00:28.926Z,95.40
2019-01-25T16:02:58.066Z,95.10
2019-01-25T16:05:27.265Z,95.10
2019-01-25T16:07:56.516Z,95.20
2019-01-25T16:10:25.629Z,95.10
2019-01-25T16:12:54.765Z,95.20
2019-01-25T16:15:28.341Z,95.20
2019-01-25T16:17:57.677Z,95.20
2019-01-25T16:20:26.827Z,95.20
2019-01-25T16:22:56.165Z,95.10
2019-01-25T16:25:28.543Z,95.10
2019-01-25T16:27:58.855Z,95.10
2019-01-25T16:30:30.565Z,95.10
2019-01-25T16:32:59.724Z,95.10
2019-01-25T16:35:28.842Z,95.00
2019-01-25T16:37:57.959Z,94.90
2019-01-25T16:40:29.211Z,95.00
2019-01-25T16:42:59.259Z,94.90
2019-01-25T16:45:31.643Z,95.00
2019-01-25T16:48:00.755Z,95.10
2019-01-25T16:50:29.874Z,95.20
2019-01-25T16:52:58.989Z,95.40
2019-01-25T16:55:28.107Z,95.40
2019-01-25T16:57:57.231Z,95.70
2019-01-25T17:00:31.910Z,95.90
2019-01-25T17:03:01.105Z,96.10
2019-01-25T17:05:30.218Z,96.20
2019-01-25T17:07:59.390Z,96.50
2019-01-25T17:10:28.511Z,96.60
2019-01-25T17:12:57.627Z,96.80
2019-01-25T17:15:26.858Z,96.80
2019-01-25T17:17:55.941Z,97.10
2019-01-25T17:20:26.795Z,97.20
2019-01-25T17:22:56.911Z,97.30
2019-01-25T17:25:26.051Z,97.50
2019-01-25T17:27:55.160Z,97.80
2019-01-25T17:30:26.602Z,98.00
2019-01-25T17:32:57.198Z,98.10
2019-01-25T17:35:26.374Z,98.30
2019-01-25T17:37:55.508Z,98.30
2019-01-25T17:40:27.879Z,98.50
2019-01-25T17:42:57.046Z,98.50
2019-01-25T17:45:26.352Z,98.60
2019-01-25T17:47:55.469Z,98.90
2019-01-25T17:50:24.629Z,98.60
2019-01-25T17:52:53.743Z,98.70
2019-01-25T17:55:22.856Z,99.00
2019-01-25T17:57:52.087Z,99.10
2019-01-25T18:00:45.512Z,99.10
2019-01-25T18:03:14.686Z,99.20
2019-01-25T18:05:43.809Z,99.30
2019-01-25T18:08:12.914Z,99.30
2019-01-25T18:10:42.022Z,99.30
2019-01-25T18:13:11.138Z,99.40
2019-01-25T18:15:40.250Z,99.50
2019-01-25T18:18:10.326Z,99.60
2019-01-25T18:20:39.444Z,99.70
2019-01-25T18:23:08.550Z,99.90
2019-01-25T18:25:44.305Z,99.90
2019-01-25T18:28:34.793Z,99.90
2019-01-25T18:31:15.965Z,99.90
2019-01-25T18:33:45.084Z,99.90
2019-01-25T18:36:14.186Z,99.90
2019-01-25T18:38:43.416Z,99.90
2019-01-25T18:41:12.499Z,99.90
2019-01-25T18:43:41.651Z,99.90
2019-01-25T18:46:10.765Z,99.90
2019-01-25T18:48:39.880Z,99.90
2019-01-25T18:51:08.990Z,99.90
2019-01-25T18:53:39.071Z,99.90
2019-01-25T18:56:08.431Z,99.90
2019-01-25T18:58:37.537Z,99.90
2019-01-25T19:01:06.651Z,99.90
2019-01-25T19:03:35.756Z,99.90
2019-01-25T19:06:05.843Z,99.90
2019-01-25T19:08:34.951Z,99.90
2019-01-25T19:11:04.070Z,99.90
2019-01-25T19:13:34.100Z,99.90
2019-01-25T19:16:03.208Z,99.90
2019-01-25T19:18:32.302Z,99.90
2019-01-25T19:21:01.415Z,99.90
2019-01-25T19:23:30.518Z,99.90
2019-01-25T19:25:59.632Z,99.90
2019-01-25T19:28:28.736Z,99.90
2019-01-25T19:30:57.849Z,99.90
2019-01-25T19:33:26.999Z,99.90
2019-01-25T19:35:56.107Z,99.90
2019-01-25T19:38:25.247Z,99.90
2019-01-25T19:40:54.401Z,99.90
2019-01-25T19:43:37.791Z,99.90
2019-01-25T19:46:09.636Z,99.90
2019-01-25T19:48:40.346Z,99.90
2019-01-25T19:51:09.458Z,99.60
2019-01-25T19:53:38.569Z,99.70
2019-01-25T19:56:08.662Z,99.90
2019-01-25T19:58:37.768Z,99.90
2019-01-25T20:01:06.896Z,99.90
2019-01-25T20:03:35.996Z,99.90
2019-01-25T20:06:05.113Z,99.90
2019-01-25T20:08:34.215Z,99.90
2019-01-25T20:11:03.349Z,99.90
2019-01-25T20:13:32.436Z,99.80
2019-01-25T20:16:01.547Z,99.90
2019-01-25T20:18:30.671Z,99.90
2019-01-25T20:20:59.804Z,99.80
2019-01-25T20:23:28.890Z,99.70
2019-01-25T20:25:58.000Z,99.50
2019-01-25T20:28:27.095Z,99.50
2019-01-25T20:30:57.175Z,99.60
2019-01-25T20:33:26.271Z,99.70
2019-01-25T20:35:55.388Z,99.90
2019-01-25T20:38:24.556Z,99.90
2019-01-25T20:40:53.667Z,99.90
2019-01-25T20:43:22.767Z,99.90
2019-01-25T20:45:51.875Z,99.90
2019-01-25T20:48:20.979Z,99.90
2019-01-25T20:50:50.092Z,99.90
2019-01-25T20:53:19.199Z,99.90
2019-01-25T20:55:48.321Z,99.90
2019-01-25T20:58:17.414Z,99.90
2019-01-25T21:00:46.646Z,99.90
2019-01-25T21:03:15.987Z,99.90
2019-01-25T21:05:45.098Z,99.90
2019-01-25T21:08:14.228Z,99.90
2019-01-25T21:10:46.284Z,99.90
2019-01-25T21:13:15.379Z,99.90
2019-01-25T21:15:44.474Z,99.90
2019-01-25T21:18:13.584Z,99.90
2019-01-25T21:20:50.874Z,99.90
2019-01-25T21:23:15.151Z,99.90
2019-01-25T21:25:44.247Z,99.90
2019-01-25T21:28:13.360Z,99.90
2019-01-25T21:30:43.429Z,99.90
2019-01-25T21:33:12.553Z,99.90
2019-01-25T21:35:43.284Z,99.90
2019-01-25T21:38:12.525Z,99.90
2019-01-25T21:40:41.741Z,99.90
2019-01-25T21:43:11.248Z,99.90
2019-01-25T21:45:43.278Z,99.90
2019-01-25T21:48:11.236Z,99.90
2019-01-25T21:50:42.576Z,99.90
2019-01-25T21:53:16.304Z,99.90
2019-01-25T21:55:44.155Z,99.90
2019-01-25T21:58:13.262Z,99.90
2019-01-25T22:00:42.366Z,99.90
2019-01-25T22:03:11.472Z,99.90
2019-01-25T22:05:42.278Z,99.90
2019-01-25T22:08:11.383Z,99.90
2019-01-25T22:10:43.966Z,99.90
2019-01-25T22:13:13.292Z,99.90
2019-01-25T22:15:50.532Z,99.90
2019-01-25T22:18:14.198Z,99.90
2019-01-25T22:20:43.315Z,99.90
2019-01-25T22:23:12.450Z,99.90
2019-01-25T22:25:41.549Z,99.90
2019-01-25T22:28:10.659Z,99.90
2019-01-25T22:30:39.764Z,99.90
2019-01-25T22:33:08.919Z,99.90
2019-01-25T22:35:38.020Z,99.90
2019-01-25T22:38:07.131Z,99.90
2019-01-25T22:40:36.230Z,99.90
2019-01-25T22:43:05.517Z,99.90
2019-01-25T22:45:34.806Z,99.90
2019-01-25T22:48:04.202Z,99.90
2019-01-25T22:50:34.003Z,99.90
2019-01-25T22:53:03.105Z,99.90
2019-01-25T22:55:32.212Z,99.90
2019-01-25T22:58:01.331Z,99.90
2019-01-25T23:00:47.462Z,99.90
2019-01-25T23:03:33.644Z,99.90
2019-01-25T23:06:17.758Z,99.90
2019-01-25T23:08:46.867Z,99.90
2019-01-25T23:11:15.978Z,99.90
2019-01-25T23:13:45.093Z,99.90
2019-01-25T23:16:14.187Z,99.90
2019-01-25T23:18:43.311Z,99.90
2019-01-25T23:21:12.418Z,99.90
2019-01-25T23:23:41.534Z,99.90
2019-01-25T23:26:11.803Z,99.90
2019-01-25T23:28:40.911Z,99.90
2019-01-25T23:31:10.023Z,99.90
2019-01-25T23:33:39.151Z,99.90
2019-01-25T23:36:08.267Z,99.90
2019-01-25T23:38:37.381Z,99.90
2019-01-25T23:41:06.493Z,99.90
2019-01-25T23:43:35.591Z,99.90
2019-01-25T23:46:04.699Z,99.90
2019-01-25T23:48:33.821Z,99.90
2019-01-25T23:51:02.934Z,99.90
2019-01-25T23:53:32.030Z,99.90
2019-01-25T23:56:01.163Z,99.90
2019-01-25T23:58:30.253Z,99.90
